createdAt,value
2023-01-20T00:01:28.387Z,40.40
2023-01-20T00:03:58.598Z,40.34
2023-01-20T00:06:28.300Z,40.27
2023-01-20T00:09:00.357Z,40.18
2023-01-20T00:11:29.371Z,40.36
2023-01-20T00:13:58.757Z,40.26
2023-01-20T00:16:27.784Z,40.27
2023-01-20T00:18:57.659Z,40.30
2023-01-20T00:21:26.472Z,40.22
2023-01-20T00:23:55.007Z,40.22
2023-01-20T00:26:25.032Z,40.17
2023-01-20T00:28:55.446Z,40.27
2023-01-20T00:31:24.994Z,40.21
2023-01-20T00:33:54.552Z,40.15
2023-01-20T00:36:25.221Z,40.20
2023-01-20T00:38:53.792Z,40.23
2023-01-20T00:41:22.571Z,40.46
2023-01-20T00:43:51.170Z,40.08
2023-01-20T00:46:19.924Z,40.36
2023-01-20T00:48:48.511Z,40.11
2023-01-20T00:51:17.552Z,40.10
2023-01-20T00:53:47.490Z,40.22
2023-01-20T00:56:16.192Z,40.19
2023-01-20T00:58:45.301Z,40.24
2023-01-20T01:01:14.065Z,40.17
2023-01-20T01:03:42.706Z,39.97
2023-01-20T01:06:12.765Z,40.00
2023-01-20T01:08:41.429Z,39.98
2023-01-20T01:11:11.971Z,40.01
2023-01-20T01:13:41.033Z,40.06
2023-01-20T01:16:13.018Z,39.98
2023-01-20T01:18:41.638Z,40.01
2023-01-20T01:21:10.969Z,39.97
2023-01-20T01:23:39.655Z,40.07
2023-01-20T01:26:08.304Z,39.94
2023-01-20T01:28:38.369Z,39.97
2023-01-20T01:31:08.120Z,39.95
2023-01-20T01:33:36.938Z,39.95
2023-01-20T01:36:06.623Z,39.91
2023-01-20T01:38:35.160Z,39.91
2023-01-20T01:41:03.862Z,39.85
2023-01-20T01:43:34.168Z,40.05
2023-01-20T01:46:04.368Z,39.88
2023-01-20T01:48:35.216Z,39.84
2023-01-20T01:51:06.139Z,39.90
2023-01-20T01:53:39.763Z,39.77
2023-01-20T01:56:09.207Z,39.77
2023-01-20T01:58:39.077Z,39.83
2023-01-20T02:01:09.301Z,39.78
2023-01-20T02:03:57.023Z,39.80
2023-01-20T02:06:28.235Z,39.88
2023-01-20T02:08:56.888Z,39.80
2023-01-20T02:11:25.614Z,39.84
2023-01-20T02:13:54.233Z,39.79
2023-01-20T02:16:32.194Z,39.72
2023-01-20T02:19:12.888Z,39.84
2023-01-20T02:22:06.264Z,39.73
2023-01-20T02:25:12.450Z,39.71
2023-01-20T02:28:36.248Z,39.67
2023-01-20T02:32:02.011Z,39.65
2023-01-20T02:34:32.399Z,39.57
2023-01-20T02:37:04.074Z,39.64
2023-01-20T02:39:36.589Z,39.59
2023-01-20T02:42:10.632Z,39.58
2023-01-20T02:44:42.878Z,39.61
2023-01-20T02:47:15.663Z,39.62
2023-01-20T02:49:49.159Z,39.60
2023-01-20T02:52:19.799Z,39.67
2023-01-20T02:54:50.734Z,39.44
2023-01-20T02:57:21.851Z,39.65
2023-01-20T02:59:54.151Z,39.56
2023-01-20T03:02:25.812Z,39.60
2023-01-20T03:04:57.818Z,39.48
2023-01-20T03:07:27.197Z,39.74
2023-01-20T03:09:57.424Z,39.67
2023-01-20T03:12:29.475Z,39.69
2023-01-20T03:14:58.188Z,39.50
2023-01-20T03:17:28.127Z,39.47
2023-01-20T03:19:56.786Z,39.64
2023-01-20T03:22:25.492Z,39.46
2023-01-20T03:24:54.246Z,39.48
2023-01-20T03:27:22.800Z,39.53
2023-01-20T03:29:51.620Z,39.55
2023-01-20T03:32:22.749Z,39.66
2023-01-20T03:34:53.501Z,39.34
2023-01-20T03:37:22.036Z,39.44
2023-01-20T03:39:50.817Z,39.42
2023-01-20T03:42:25.694Z,39.33
2023-01-20T03:45:02.170Z,39.44
2023-01-20T03:47:46.380Z,39.39
2023-01-20T03:50:23.510Z,39.30
2023-01-20T03:52:55.189Z,39.35
2023-01-20T03:55:26.705Z,39.36
2023-01-20T03:57:58.491Z,39.41
2023-01-20T04:00:29.708Z,39.31
2023-01-20T04:02:58.644Z,39.39
2023-01-20T04:05:28.857Z,39.19
2023-01-20T04:07:58.505Z,39.34
2023-01-20T04:10:27.270Z,39.38
2023-01-20T04:12:58.204Z,39.26
2023-01-20T04:15:29.671Z,39.32
2023-01-20T04:17:58.954Z,39.27
2023-01-20T04:20:29.354Z,39.28
2023-01-20T04:22:58.767Z,39.29
2023-01-20T04:25:30.211Z,39.34
2023-01-20T04:27:58.864Z,39.18
2023-01-20T04:30:27.505Z,39.27
2023-01-20T04:32:56.095Z,39.31
2023-01-20T04:35:25.274Z,39.26
2023-01-20T04:37:55.228Z,39.18
2023-01-20T04:40:24.070Z,39.16
2023-01-20T04:42:52.784Z,39.28
2023-01-20T04:45:21.522Z,38.98
2023-01-20T04:47:50.073Z,39.16
2023-01-20T04:50:19.201Z,39.30
2023-01-20T04:52:47.733Z,39.24
2023-01-20T04:55:17.989Z,39.19
2023-01-20T04:57:48.098Z,39.22
2023-01-20T05:00:20.096Z,39.12
2023-01-20T05:02:48.906Z,39.05
2023-01-20T05:05:18.035Z,39.21
2023-01-20T05:07:46.768Z,39.15
2023-01-20T05:10:15.407Z,39.11
2023-01-20T05:12:45.364Z,39.08
2023-01-20T05:15:14.221Z,39.21
2023-01-20T05:17:43.162Z,38.99
2023-01-20T05:20:12.813Z,38.99
2023-01-20T05:22:41.436Z,39.19
2023-01-20T05:25:11.052Z,38.96
2023-01-20T05:27:39.794Z,39.05
2023-01-20T05:30:12.037Z,39.03
2023-01-20T05:32:40.780Z,39.11
2023-01-20T05:35:10.839Z,38.96
2023-01-20T05:37:39.468Z,38.99
2023-01-20T05:40:09.917Z,38.87
2023-01-20T05:42:38.500Z,38.89
2023-01-20T05:45:10.383Z,38.90
2023-01-20T05:47:38.994Z,39.02
2023-01-20T05:50:08.593Z,38.89
2023-01-20T05:52:37.248Z,38.95
2023-01-20T05:55:06.830Z,38.87
2023-01-20T05:57:35.517Z,38.97
2023-01-20T06:00:04.803Z,38.92
2023-01-20T06:02:35.023Z,38.92
2023-01-20T06:05:03.700Z,38.91
2023-01-20T06:07:32.418Z,38.83
2023-01-20T06:10:02.583Z,38.95
2023-01-20T06:12:31.332Z,38.82
2023-01-20T06:14:59.930Z,38.92
2023-01-20T06:17:28.981Z,38.89
2023-01-20T06:19:58.946Z,38.79
2023-01-20T06:22:27.858Z,38.92
2023-01-20T06:24:56.516Z,38.83
2023-01-20T06:27:25.109Z,38.89
2023-01-20T06:29:53.644Z,38.80
2023-01-20T06:32:22.770Z,38.87
2023-01-20T06:34:53.092Z,38.78
2023-01-20T06:37:23.075Z,38.74
2023-01-20T06:39:51.702Z,38.78
2023-01-20T06:42:20.285Z,38.82
2023-01-20T06:44:50.649Z,38.78
2023-01-20T06:47:19.281Z,38.83
2023-01-20T06:49:47.857Z,38.85
2023-01-20T06:52:19.643Z,38.80
2023-01-20T06:54:49.643Z,39.01
2023-01-20T06:57:19.738Z,38.98
2023-01-20T06:59:50.200Z,39.08
2023-01-20T07:02:18.881Z,38.97
2023-01-20T07:04:47.460Z,39.04
2023-01-20T07:07:19.242Z,39.04
2023-01-20T07:09:49.182Z,38.75
2023-01-20T07:12:17.833Z,39.39
2023-01-20T07:14:46.499Z,39.25
2023-01-20T07:17:15.406Z,39.32
2023-01-20T07:19:44.074Z,39.37
2023-01-20T07:22:12.795Z,40.03
2023-01-20T07:24:41.445Z,39.38
2023-01-20T07:27:15.118Z,39.71
2023-01-20T07:29:43.884Z,39.72
2023-01-20T07:32:14.242Z,39.93
2023-01-20T07:34:42.860Z,39.74
2023-01-20T07:37:11.486Z,39.58
2023-01-20T07:39:42.296Z,39.52
2023-01-20T07:42:12.211Z,39.77
2023-01-20T07:44:41.069Z,40.18
2023-01-20T07:47:09.829Z,39.88
2023-01-20T07:49:38.388Z,40.09
2023-01-20T07:52:07.065Z,39.98
2023-01-20T07:54:35.830Z,40.01
2023-01-20T07:57:04.416Z,39.94
2023-01-20T07:59:34.358Z,39.84
2023-01-20T08:02:03.337Z,39.71
2023-01-20T08:04:32.143Z,39.66
2023-01-20T08:07:00.785Z,39.79
2023-01-20T08:09:30.193Z,39.66
2023-01-20T08:11:58.758Z,39.75
2023-01-20T08:14:27.574Z,40.33
2023-01-20T08:16:57.748Z,40.59
2023-01-20T08:19:29.585Z,40.56
2023-01-20T08:21:58.369Z,40.35
2023-01-20T08:24:27.129Z,40.56
2023-01-20T08:26:55.689Z,40.64
2023-01-20T08:29:24.325Z,40.63
2023-01-20T08:31:53.023Z,40.62
2023-01-20T08:34:23.298Z,40.32
2023-01-20T08:36:54.309Z,40.35
2023-01-20T08:39:23.028Z,40.56
2023-01-20T08:41:51.757Z,40.16
2023-01-20T08:44:23.061Z,40.21
2023-01-20T08:46:52.781Z,40.13
2023-01-20T08:49:23.648Z,40.16
2023-01-20T08:51:52.382Z,40.15
2023-01-20T08:54:22.084Z,40.08
2023-01-20T08:56:52.203Z,40.26
2023-01-20T08:59:20.815Z,40.16
2023-01-20T09:01:49.402Z,38.75
2023-01-20T09:04:18.072Z,39.06
2023-01-20T09:06:50.262Z,39.11
2023-01-20T09:09:20.292Z,37.58
2023-01-20T09:11:51.852Z,38.15
2023-01-20T09:14:20.653Z,37.97
2023-01-20T09:16:49.290Z,37.91
2023-01-20T09:19:18.010Z,38.21
2023-01-20T09:21:47.933Z,37.44
2023-01-20T09:24:16.653Z,40.81
2023-01-20T09:26:45.452Z,41.40
2023-01-20T09:29:15.482Z,41.25
2023-01-20T09:31:45.320Z,41.69
2023-01-20T09:34:19.396Z,41.35
2023-01-20T09:36:51.413Z,41.06
2023-01-20T09:39:37.575Z,40.90
2023-01-20T09:42:34.837Z,40.86
2023-01-20T09:45:22.738Z,41.00
2023-01-20T09:47:51.513Z,41.51
2023-01-20T09:50:47.254Z,41.75
2023-01-20T09:53:30.895Z,41.15
2023-01-20T09:56:00.965Z,41.22
2023-01-20T09:58:34.238Z,40.63
2023-01-20T10:01:10.858Z,41.94
2023-01-20T10:03:43.498Z,42.68
2023-01-20T10:06:16.178Z,43.95
2023-01-20T10:09:04.556Z,43.88
2023-01-20T10:11:38.540Z,44.59
2023-01-20T10:14:12.529Z,43.84
2023-01-20T10:16:45.493Z,43.67
2023-01-20T10:19:19.557Z,42.56
2023-01-20T10:21:52.188Z,42.36
2023-01-20T10:24:25.085Z,42.43
2023-01-20T10:26:55.801Z,42.24
2023-01-20T10:29:31.264Z,41.99
2023-01-20T10:32:02.215Z,41.98
2023-01-20T10:34:36.008Z,41.65
2023-01-20T10:37:07.348Z,41.73
2023-01-20T10:39:44.027Z,41.75
2023-01-20T10:42:14.399Z,41.98
2023-01-20T10:44:43.155Z,41.98
2023-01-20T10:47:22.895Z,41.88
2023-01-20T10:50:21.818Z,42.17
2023-01-20T10:53:16.692Z,42.81
2023-01-20T10:55:58.132Z,40.97
2023-01-20T10:58:28.686Z,41.18
2023-01-20T11:00:57.504Z,42.03
2023-01-20T11:03:26.221Z,42.13
2023-01-20T11:05:54.766Z,42.21
2023-01-20T11:08:24.946Z,42.43
2023-01-20T11:10:57.852Z,42.33
2023-01-20T11:13:26.571Z,42.38
2023-01-20T11:15:57.618Z,43.65
2023-01-20T11:18:29.354Z,42.73
2023-01-20T11:21:01.133Z,42.73
2023-01-20T11:23:41.212Z,43.13
2023-01-20T11:26:20.541Z,43.65
2023-01-20T11:28:53.268Z,42.87
2023-01-20T11:31:22.235Z,43.21
2023-01-20T11:33:59.319Z,42.90
2023-01-20T11:36:27.997Z,42.98
2023-01-20T11:38:57.631Z,43.31
2023-01-20T11:41:28.587Z,43.47
2023-01-20T11:43:58.096Z,43.43
2023-01-20T11:46:30.146Z,44.09
2023-01-20T11:49:16.519Z,44.67
2023-01-20T11:51:51.007Z,45.92
2023-01-20T11:54:21.578Z,44.83
2023-01-20T11:56:55.002Z,45.90
2023-01-20T11:59:28.496Z,46.18
2023-01-20T12:02:01.760Z,46.29
2023-01-20T12:05:10.297Z,45.66
2023-01-20T12:07:41.295Z,45.17
2023-01-20T12:10:16.181Z,44.97
2023-01-20T12:12:49.253Z,44.80
2023-01-20T12:15:20.951Z,44.46
2023-01-20T12:17:55.164Z,44.31
2023-01-20T12:20:28.173Z,44.25
2023-01-20T12:23:14.443Z,44.13
2023-01-20T12:25:47.952Z,43.92
2023-01-20T12:28:20.862Z,43.85
2023-01-20T12:30:57.318Z,43.71
2023-01-20T12:33:27.291Z,43.68
2023-01-20T12:36:41.718Z,43.47
2023-01-20T12:39:30.619Z,43.32
2023-01-20T12:42:43.659Z,43.27
2023-01-20T12:45:22.401Z,43.14
2023-01-20T12:48:01.357Z,43.09
2023-01-20T12:50:36.364Z,43.02
2023-01-20T12:53:23.410Z,43.05
2023-01-20T12:56:03.998Z,42.88
2023-01-20T12:58:42.540Z,42.87
2023-01-20T13:01:48.103Z,42.68
2023-01-20T13:05:07.645Z,42.71
2023-01-20T13:07:56.054Z,42.72
2023-01-20T13:10:49.536Z,42.53
2023-01-20T13:13:29.287Z,42.57
2023-01-20T13:16:01.833Z,42.58
2023-01-20T13:18:36.665Z,42.42
2023-01-20T13:21:05.762Z,42.37
2023-01-20T13:23:36.788Z,42.37
2023-01-20T13:26:06.206Z,42.42
2023-01-20T13:28:34.968Z,42.27
2023-01-20T13:31:03.867Z,42.18
2023-01-20T13:33:37.052Z,42.14
2023-01-20T13:36:21.133Z,42.07
2023-01-20T13:38:50.740Z,42.16
2023-01-20T13:41:49.775Z,42.16
2023-01-20T13:44:37.649Z,42.27
2023-01-20T13:47:08.217Z,42.10
2023-01-20T13:49:52.034Z,41.93
2023-01-20T13:53:16.579Z,42.06
2023-01-20T13:56:02.522Z,42.09
2023-01-20T13:58:32.637Z,41.85
2023-01-20T14:01:03.340Z,42.19
2023-01-20T14:03:33.066Z,41.78
2023-01-20T14:06:03.817Z,42.02
2023-01-20T14:08:39.027Z,42.02
2023-01-20T14:11:14.409Z,42.00
2023-01-20T14:13:43.629Z,41.97
2023-01-20T14:16:30.634Z,40.01
2023-01-20T14:19:01.110Z,41.75
2023-01-20T14:21:31.773Z,42.25
2023-01-20T14:24:00.427Z,42.25
2023-01-20T14:26:30.554Z,42.07
2023-01-20T14:29:00.179Z,41.95
2023-01-20T14:31:36.493Z,42.04
2023-01-20T14:34:22.815Z,41.92
2023-01-20T14:36:52.772Z,41.76
2023-01-20T14:39:22.683Z,41.77
2023-01-20T14:41:52.308Z,41.76
2023-01-20T14:44:22.422Z,41.80
2023-01-20T14:46:52.268Z,41.66
2023-01-20T14:49:22.815Z,41.60
2023-01-20T14:51:52.869Z,41.64
2023-01-20T14:54:45.627Z,41.71
2023-01-20T14:57:29.319Z,41.58
2023-01-20T15:00:20.665Z,41.51
2023-01-20T15:03:05.236Z,41.42
2023-01-20T15:05:39.644Z,41.48
2023-01-20T15:08:26.136Z,41.34
2023-01-20T15:11:22.885Z,41.50
2023-01-20T15:14:09.451Z,41.56
2023-01-20T15:16:49.716Z,41.35
2023-01-20T15:19:34.778Z,41.28
2023-01-20T15:22:18.887Z,41.47
2023-01-20T15:24:49.635Z,41.46
2023-01-20T15:27:28.216Z,41.34
2023-01-20T15:30:14.465Z,41.56
2023-01-20T15:32:43.207Z,41.38
2023-01-20T15:35:15.070Z,41.51
2023-01-20T15:37:44.234Z,41.57
2023-01-20T15:40:21.329Z,41.33
2023-01-20T15:42:50.409Z,41.19
2023-01-20T15:45:19.521Z,41.30
2023-01-20T15:47:49.198Z,41.24
2023-01-20T15:50:20.312Z,41.16
2023-01-20T15:52:49.156Z,41.09
2023-01-20T15:55:19.870Z,41.16
2023-01-20T15:57:51.455Z,41.15
2023-01-20T16:00:21.696Z,41.13
2023-01-20T16:02:50.538Z,41.21
2023-01-20T16:05:19.135Z,40.93
2023-01-20T16:07:49.613Z,41.03
2023-01-20T16:10:20.399Z,41.12
2023-01-20T16:12:49.152Z,41.05
2023-01-20T16:15:19.006Z,41.13
2023-01-20T16:17:47.592Z,41.01
2023-01-20T16:20:26.154Z,41.06
2023-01-20T16:22:54.743Z,40.47
2023-01-20T16:25:25.025Z,40.85
2023-01-20T16:27:53.793Z,41.02
2023-01-20T16:30:23.519Z,40.91
2023-01-20T16:32:52.353Z,41.04
2023-01-20T16:35:23.611Z,40.95
2023-01-20T16:37:52.875Z,41.28
2023-01-20T16:40:22.463Z,41.08
2023-01-20T16:42:52.459Z,40.97
2023-01-20T16:45:25.821Z,40.97
2023-01-20T16:47:54.600Z,41.06
2023-01-20T16:50:27.950Z,41.14
2023-01-20T16:52:56.606Z,41.43
2023-01-20T16:55:25.537Z,41.42
2023-01-20T16:57:55.521Z,41.45
2023-01-20T17:00:24.512Z,41.26
2023-01-20T17:02:53.535Z,41.22
2023-01-20T17:05:25.644Z,41.14
2023-01-20T17:07:56.943Z,41.13
2023-01-20T17:10:25.976Z,41.03
2023-01-20T17:12:56.219Z,40.92
2023-01-20T17:15:24.920Z,41.03
2023-01-20T17:17:56.139Z,40.94
2023-01-20T17:20:26.169Z,40.69
2023-01-20T17:22:55.561Z,40.85
2023-01-20T17:25:24.285Z,40.92
2023-01-20T17:27:53.331Z,40.80
2023-01-20T17:30:26.077Z,40.70
2023-01-20T17:32:55.119Z,40.82
2023-01-20T17:35:23.676Z,40.81
2023-01-20T17:37:52.357Z,40.69
2023-01-20T17:40:21.050Z,40.69
2023-01-20T17:42:49.665Z,40.63
2023-01-20T17:45:18.351Z,40.74
2023-01-20T17:47:51.135Z,40.72
2023-01-20T17:50:19.989Z,40.72
2023-01-20T17:52:49.100Z,40.66
2023-01-20T17:55:18.081Z,40.55
2023-01-20T17:57:46.952Z,40.60
2023-01-20T18:00:16.725Z,40.66
2023-01-20T18:02:47.017Z,40.68
2023-01-20T18:05:15.859Z,40.69
2023-01-20T18:07:44.602Z,40.56
2023-01-20T18:10:13.398Z,40.54
2023-01-20T18:12:42.378Z,40.64
2023-01-20T18:15:11.711Z,40.49
2023-01-20T18:17:43.410Z,40.54
2023-01-20T18:20:15.336Z,40.52
2023-01-20T18:22:49.931Z,40.51
2023-01-20T18:25:18.783Z,40.42
2023-01-20T18:27:47.412Z,40.47
2023-01-20T18:30:17.159Z,40.39
2023-01-20T18:32:46.421Z,40.35
2023-01-20T18:35:16.795Z,40.65
2023-01-20T18:37:45.386Z,40.51
2023-01-20T18:40:15.165Z,40.04
2023-01-20T18:42:45.175Z,40.44
2023-01-20T18:45:14.005Z,40.93
2023-01-20T18:47:42.590Z,41.35
2023-01-20T18:50:12.662Z,42.02
2023-01-20T18:52:43.971Z,43.49
2023-01-20T18:55:12.574Z,42.57
2023-01-20T18:57:41.233Z,41.77
2023-01-20T19:00:11.940Z,41.87
2023-01-20T19:02:40.758Z,42.74
2023-01-20T19:05:10.014Z,43.66
2023-01-20T19:07:38.647Z,44.10
2023-01-20T19:10:10.290Z,45.07
2023-01-20T19:12:39.001Z,44.05
2023-01-20T19:15:09.503Z,44.61
2023-01-20T19:17:38.491Z,44.50
2023-01-20T19:20:08.794Z,44.43
2023-01-20T19:22:37.966Z,44.37
2023-01-20T19:25:09.141Z,43.64
2023-01-20T19:27:37.923Z,45.30
2023-01-20T19:30:08.174Z,44.55
2023-01-20T19:32:36.782Z,44.00
2023-01-20T19:35:09.052Z,44.14
2023-01-20T19:37:38.559Z,43.90
2023-01-20T19:40:10.239Z,43.59
2023-01-20T19:42:38.899Z,43.20
2023-01-20T19:45:09.622Z,43.05
2023-01-20T19:47:38.257Z,42.90
2023-01-20T19:50:08.104Z,42.73
2023-01-20T19:52:36.739Z,42.63
2023-01-20T19:55:06.005Z,42.72
2023-01-20T19:57:35.940Z,42.51
2023-01-20T20:00:05.627Z,42.36
2023-01-20T20:02:34.742Z,42.29
2023-01-20T20:05:03.425Z,42.39
2023-01-20T20:07:32.342Z,42.40
2023-01-20T20:10:01.052Z,42.30
2023-01-20T20:12:29.892Z,42.45
2023-01-20T20:15:00.132Z,42.13
2023-01-20T20:17:30.654Z,42.24
2023-01-20T20:19:59.402Z,42.34
2023-01-20T20:22:28.116Z,42.58
2023-01-20T20:24:56.679Z,42.58
2023-01-20T20:27:25.455Z,42.55
2023-01-20T20:29:56.789Z,42.42
2023-01-20T20:32:28.629Z,42.41
2023-01-20T20:34:58.660Z,42.42
2023-01-20T20:37:27.348Z,42.37
2023-01-20T20:39:56.091Z,42.21
2023-01-20T20:42:24.731Z,42.27
2023-01-20T20:44:53.572Z,42.45
2023-01-20T20:47:22.166Z,42.68
2023-01-20T20:49:52.408Z,42.98
2023-01-20T20:52:21.114Z,42.91
2023-01-20T20:54:49.663Z,42.52
2023-01-20T20:57:18.387Z,42.70
2023-01-20T20:59:58.486Z,42.58
2023-01-20T21:02:27.857Z,42.64
2023-01-20T21:04:57.971Z,42.84
2023-01-20T21:07:26.581Z,42.93
2023-01-20T21:09:55.283Z,42.92
2023-01-20T21:12:24.130Z,42.85
2023-01-20T21:14:52.712Z,42.63
2023-01-20T21:17:21.425Z,42.51
2023-01-20T21:19:52.330Z,42.50
2023-01-20T21:22:22.567Z,42.36
2023-01-20T21:24:51.407Z,42.34
2023-01-20T21:27:20.090Z,42.31
2023-01-20T21:29:48.721Z,42.27
2023-01-20T21:32:17.634Z,42.07
2023-01-20T21:34:46.285Z,42.09
2023-01-20T21:37:15.039Z,42.00
2023-01-20T21:39:45.079Z,41.90
2023-01-20T21:42:13.791Z,41.85
2023-01-20T21:44:43.265Z,41.86
2023-01-20T21:47:12.149Z,41.87
2023-01-20T21:49:58.803Z,41.94
2023-01-20T21:52:42.857Z,41.71
2023-01-20T21:55:15.953Z,41.62
2023-01-20T21:57:44.725Z,41.65
2023-01-20T22:00:14.502Z,41.69
2023-01-20T22:02:44.969Z,41.63
2023-01-20T22:05:13.855Z,41.75
2023-01-20T22:07:42.367Z,41.77
2023-01-20T22:10:14.320Z,41.68
2023-01-20T22:12:43.302Z,41.76
2023-01-20T22:15:13.615Z,41.57
2023-01-20T22:17:42.947Z,41.80
2023-01-20T22:20:13.140Z,41.72
2023-01-20T22:22:41.740Z,41.56
2023-01-20T22:25:11.235Z,41.45
2023-01-20T22:27:41.300Z,41.65
2023-01-20T22:30:12.197Z,41.70
2023-01-20T22:32:41.085Z,41.60
2023-01-20T22:35:10.493Z,41.50
2023-01-20T22:37:39.198Z,41.43
2023-01-20T22:40:08.879Z,41.39
2023-01-20T22:42:37.471Z,41.41
2023-01-20T22:45:09.185Z,41.36
2023-01-20T22:47:38.031Z,41.39
2023-01-20T22:50:08.082Z,41.40
2023-01-20T22:52:37.112Z,41.37
2023-01-20T22:55:07.130Z,41.32
2023-01-20T22:57:35.663Z,41.33
2023-01-20T23:00:06.573Z,41.35
2023-01-20T23:02:35.246Z,41.17
2023-01-20T23:05:03.780Z,41.21
2023-01-20T23:07:32.423Z,41.20
2023-01-20T23:10:01.169Z,41.03
2023-01-20T23:12:29.868Z,41.20
2023-01-20T23:15:01.368Z,40.98
2023-01-20T23:17:32.394Z,41.06
2023-01-20T23:20:01.406Z,40.86
2023-01-20T23:22:30.086Z,40.87
2023-01-20T23:24:58.875Z,40.97
2023-01-20T23:27:27.512Z,40.93
2023-01-20T23:29:56.290Z,40.85
2023-01-20T23:32:24.905Z,40.70
2023-01-20T23:34:54.802Z,40.79
2023-01-20T23:37:23.385Z,40.63
2023-01-20T23:39:53.124Z,40.78
2023-01-20T23:42:22.191Z,40.68
2023-01-20T23:44:50.877Z,40.71
2023-01-20T23:47:19.465Z,40.67
2023-01-20T23:49:48.018Z,40.64
2023-01-20T23:52:18.018Z,40.54
2023-01-20T23:54:46.655Z,40.63
2023-01-20T23:57:15.196Z,40.55
2023-01-20T23:59:44.806Z,40.42
